Terminal Aerodrome Forecast
Issued by NWS

Home | Current Version | Previous Version | Text Only | Print | Product List | Glossary On
Versions: 1 2 3 4 5 6 7 8 9 10 11 12 13 14 15 16 17 18
000
FTUS43 KICT 212300
TAFRSL
TAF
KRSL 212320Z 2200/2224 01015G23KT P6SM SKC
     FM220200 01010KT P6SM SKC
     FM221000 09008KT P6SM SKC
     FM221600 16015G24KT P6SM SKC
     FM222000 17020G30KT P6SM SKC=

USA.gov is the U.S. government's official web portal to all federal, state and local government web resources and services.